Time;durP1;ratioP1;P1;durP2;ratioP2;P2;SDS_P1;SDS_P2;PMS_P1;PMS_P2;Temp;Humidity;BMP_temperature;BMP_pressure;BME280_temperature;BME280_humidity;BME280_pressure;Samples;Min_cycle;Max_cycle;Signal;HPM_P1;HPM_P2
2023/07/17 00:02:08;;;;;;;4.63;3.37;;;;;;;;;;5113174;28;20199;-78
2023/07/17 00:04:36;;;;;;;3.90;3.50;;;;;;;;;;5113607;28;20219;-78
2023/07/17 00:07:03;;;;;;;4.07;3.67;;;;;;;;;;5113210;28;20206;-78
2023/07/17 00:09:30;;;;;;;4.13;3.73;;;;;;;;;;5113476;28;20191;-78
2023/07/17 00:11:57;;;;;;;5.03;4.53;;;;;;;;;;5094956;28;20226;-78
2023/07/17 00:14:24;;;;;;;5.43;3.80;;;;;;;;;;5112922;28;20199;-78
2023/07/17 00:16:52;;;;;;;4.33;3.93;;;;;;;;;;5113188;28;20202;-78
2023/07/17 00:19:20;;;;;;;5.10;3.57;;;;;;;;;;5112649;28;20199;-78
2023/07/17 00:21:47;;;;;;;4.43;3.93;;;;;;;;;;5094995;28;20256;-78
2023/07/17 00:24:15;;;;;;;5.40;3.53;;;;;;;;;;5113170;28;20674;-78
2023/07/17 00:26:42;;;;;;;7.60;3.60;;;;;;;;;;5094845;28;20200;-78
2023/07/17 00:29:23;;;;;;;4.97;4.13;;;;;;;;;;5077570;28;20650;-78
2023/07/17 00:31:50;;;;;;;3.77;3.47;;;;;;;;;;5094636;28;20773;-78
2023/07/17 00:34:18;;;;;;;5.97;3.80;;;;;;;;;;5094617;28;20306;-78
2023/07/17 00:36:47;;;;;;;4.53;3.80;;;;;;;;;;5094783;28;20273;-78
2023/07/17 00:39:15;;;;;;;4.13;3.23;;;;;;;;;;5112754;28;20199;-77
2023/07/17 00:41:42;;;;;;;6.00;3.67;;;;;;;;;;5112046;28;20198;-77
2023/07/17 00:44:09;;;;;;;4.07;3.70;;;;;;;;;;5077840;28;20200;-77
2023/07/17 00:46:36;;;;;;;3.90;3.30;;;;;;;;;;5094429;28;20204;-78
2023/07/17 00:49:04;;;;;;;4.07;3.70;;;;;;;;;;5112964;28;20195;-78
2023/07/17 00:51:31;;;;;;;3.63;3.33;;;;;;;;;;5112617;28;20237;-78
2023/07/17 00:54:00;;;;;;;6.20;3.97;;;;;;;;;;5094353;28;20199;-78
2023/07/17 00:56:28;;;;;;;9.00;3.77;;;;;;;;;;5113516;28;20195;-78
2023/07/17 00:58:56;;;;;;;3.90;3.47;;;;;;;;;;5112549;28;20195;-78
2023/07/17 01:01:24;;;;;;;4.50;3.80;;;;;;;;;;5112341;28;20191;-78
2023/07/17 01:03:51;;;;;;;3.47;3.07;;;;;;;;;;5112421;28;20704;-78
2023/07/17 01:06:20;;;;;;;4.10;2.90;;;;;;;;;;5094446;28;20195;-78
2023/07/17 01:08:47;;;;;;;5.93;3.63;;;;;;;;;;5094300;28;20670;-78
2023/07/17 01:11:16;;;;;;;3.30;3.03;;;;;;;;;;5094137;28;20199;-78
2023/07/17 01:13:46;;;;;;;4.17;3.33;;;;;;;;;;5112627;28;20576;-78
2023/07/17 01:16:13;;;;;;;5.13;4.00;;;;;;;;;;5113372;28;20563;-78
2023/07/17 01:18:41;;;;;;;5.37;3.83;;;;;;;;;;5112515;28;20199;-78
2023/07/17 01:21:10;;;;;;;3.67;3.10;;;;;;;;;;5113255;28;20198;-78
2023/07/17 01:23:39;;;;;;;3.97;3.37;;;;;;;;;;5112002;28;20199;-78
2023/07/17 01:26:13;;;;;;;4.30;3.90;;;;;;;;;;5112088;28;20684;-78
2023/07/17 01:28:40;;;;;;;3.87;3.57;;;;;;;;;;5092785;28;20615;-78
2023/07/17 01:31:07;;;;;;;27.80;5.53;;;;;;;;;;5111931;28;20199;-78
2023/07/17 01:33:34;;;;;;;6.33;3.63;;;;;;;;;;5094705;28;20199;-78
2023/07/17 01:36:02;;;;;;;4.80;3.87;;;;;;;;;;5111999;28;20229;-78
2023/07/17 01:38:29;;;;;;;5.17;3.67;;;;;;;;;;5112157;28;20198;-78
2023/07/17 01:40:58;;;;;;;4.33;3.87;;;;;;;;;;5093872;28;20203;-78
2023/07/17 01:43:25;;;;;;;5.60;3.73;;;;;;;;;;5111799;28;20201;-78
2023/07/17 01:45:52;;;;;;;4.90;3.63;;;;;;;;;;5093817;28;20199;-77
2023/07/17 01:48:19;;;;;;;24.80;5.30;;;;;;;;;;5112033;28;20561;-77
2023/07/17 01:50:58;;;;;;;9.47;4.07;;;;;;;;;;5111650;28;20231;-78
2023/07/17 01:56:48;;;;;;;4.00;3.10;;;;;;;;;;5013838;28;20226;-78
2023/07/17 01:59:32;;;;;;;4.20;3.70;;;;;;;;;;5089211;28;20206;-78
2023/07/17 02:02:00;;;;;;;4.03;3.67;;;;;;;;;;5115721;28;20242;-78
2023/07/17 02:04:27;;;;;;;4.07;3.63;;;;;;;;;;5080789;28;20633;-78
2023/07/17 02:06:54;;;;;;;4.87;3.70;;;;;;;;;;5098114;28;20203;-77
2023/07/17 02:09:21;;;;;;;4.67;3.93;;;;;;;;;;5115588;28;20202;-76
2023/07/17 02:11:50;;;;;;;4.87;3.83;;;;;;;;;;5096886;28;20685;-77
2023/07/17 02:14:17;;;;;;;5.80;4.00;;;;;;;;;;5114580;28;20195;-77
2023/07/17 02:16:44;;;;;;;4.40;4.00;;;;;;;;;;5115380;28;20195;-77
2023/07/17 02:19:11;;;;;;;4.33;3.93;;;;;;;;;;5116227;28;20569;-77
2023/07/17 02:21:38;;;;;;;5.73;4.07;;;;;;;;;;5064238;28;20207;-77
2023/07/17 02:24:06;;;;;;;4.70;4.30;;;;;;;;;;5096816;28;20200;-77
2023/07/17 02:26:33;;;;;;;5.90;3.80;;;;;;;;;;5115628;28;20546;-77
2023/07/17 02:29:02;;;;;;;4.97;3.83;;;;;;;;;;5097159;28;20195;-77
2023/07/17 02:31:30;;;;;;;4.60;3.67;;;;;;;;;;5115269;28;20206;-77
2023/07/17 02:33:57;;;;;;;4.63;4.20;;;;;;;;;;5097082;28;20207;-77
2023/07/17 02:36:24;;;;;;;4.93;4.27;;;;;;;;;;5097976;28;20195;-77
2023/07/17 02:38:51;;;;;;;4.77;3.60;;;;;;;;;;5114739;28;20252;-77
2023/07/17 02:41:17;;;;;;;6.03;4.50;;;;;;;;;;5115006;28;20203;-77
2023/07/17 02:43:45;;;;;;;4.43;3.77;;;;;;;;;;5115216;28;20199;-77
2023/07/17 02:46:13;;;;;;;4.53;3.97;;;;;;;;;;5115003;28;20572;-77
2023/07/17 02:48:40;;;;;;;4.67;4.27;;;;;;;;;;5115984;28;20204;-77
2023/07/17 02:51:07;;;;;;;4.07;3.77;;;;;;;;;;5079706;28;20224;-77
2023/07/17 02:53:35;;;;;;;4.33;3.77;;;;;;;;;;5114900;28;20305;-77
2023/07/17 02:56:02;;;;;;;3.63;3.33;;;;;;;;;;5115148;28;20199;-77
2023/07/17 02:58:29;;;;;;;7.43;3.93;;;;;;;;;;5096664;28;20211;-77
2023/07/17 03:00:58;;;;;;;4.27;3.87;;;;;;;;;;5096400;28;20196;-76
2023/07/17 03:03:28;;;;;;;6.33;4.33;;;;;;;;;;5113508;28;20287;-76
2023/07/17 03:05:57;;;;;;;3.90;3.60;;;;;;;;;;5097585;28;20199;-77
2023/07/17 03:08:24;;;;;;;6.00;4.20;;;;;;;;;;5114995;28;20199;-77
2023/07/17 03:10:51;;;;;;;8.53;4.50;;;;;;;;;;5096164;28;20200;-76
2023/07/17 03:13:20;;;;;;;4.13;3.80;;;;;;;;;;5114219;28;20219;-77
2023/07/17 03:15:48;;;;;;;4.37;4.00;;;;;;;;;;5114640;28;20195;-77
2023/07/17 03:18:15;;;;;;;7.37;3.97;;;;;;;;;;5114090;28;20207;-77
2023/07/17 03:20:44;;;;;;;8.30;4.03;;;;;;;;;;5096147;28;20202;-77
2023/07/17 03:23:13;;;;;;;3.80;3.50;;;;;;;;;;5114200;28;20207;-77
2023/07/17 03:25:51;;;;;;;4.70;4.30;;;;;;;;;;5096554;28;20247;-76
2023/07/17 03:28:18;;;;;;;5.20;4.00;;;;;;;;;;5114761;28;20195;-78
2023/07/17 03:31:02;;;;;;;6.40;4.70;;;;;;;;;;5079296;28;20202;-83
2023/07/17 03:33:29;;;;;;;6.77;4.03;;;;;;;;;;5095427;28;20616;-77
2023/07/17 03:35:58;;;;;;;4.23;3.83;;;;;;;;;;5095631;28;20615;-78
2023/07/17 03:38:26;;;;;;;5.77;3.93;;;;;;;;;;5113815;28;20677;-76
2023/07/17 03:40:53;;;;;;;4.87;4.23;;;;;;;;;;5113790;28;20256;-76
2023/07/17 03:43:20;;;;;;;5.33;4.07;;;;;;;;;;5113525;28;20615;-77
2023/07/17 03:45:51;;;;;;;5.80;4.03;;;;;;;;;;5114255;28;20199;-76
2023/07/17 03:48:18;;;;;;;11.30;5.17;;;;;;;;;;5095308;28;20282;-76
2023/07/17 03:50:45;;;;;;;5.40;4.57;;;;;;;;;;5095195;28;20276;-76
2023/07/17 03:53:13;;;;;;;4.60;4.20;;;;;;;;;;5095536;28;20227;-76
2023/07/17 03:55:40;;;;;;;10.30;4.27;;;;;;;;;;5095508;28;20195;-76
2023/07/17 03:58:07;;;;;;;24.57;5.77;;;;;;;;;;5095291;28;20199;-76
2023/07/17 04:00:35;;;;;;;14.23;4.37;;;;;;;;;;5078307;28;20294;-76
2023/07/17 04:03:02;;;;;;;5.23;4.77;;;;;;;;;;5095312;28;20203;-76
2023/07/17 04:05:31;;;;;;;6.63;4.73;;;;;;;;;;5113749;28;20195;-76
2023/07/17 04:07:58;;;;;;;4.20;3.90;;;;;;;;;;5095104;28;20204;-76
2023/07/17 04:10:28;;;;;;;5.53;4.47;;;;;;;;;;5078316;28;20264;-77
2023/07/17 04:12:55;;;;;;;6.80;4.13;;;;;;;;;;5095213;28;20218;-78
2023/07/17 04:15:23;;;;;;;8.57;4.30;;;;;;;;;;5078040;28;20661;-78
2023/07/17 04:17:50;;;;;;;4.70;4.30;;;;;;;;;;5078453;28;20195;-78
2023/07/17 04:20:19;;;;;;;9.77;4.57;;;;;;;;;;5095207;28;20237;-78
2023/07/17 04:22:45;;;;;;;48.57;6.93;;;;;;;;;;5078028;28;20561;-78
2023/07/17 04:25:13;;;;;;;6.73;4.63;;;;;;;;;;5112818;28;20200;-78
2023/07/17 04:27:41;;;;;;;5.63;5.13;;;;;;;;;;5112345;28;20203;-78
2023/07/17 04:30:09;;;;;;;6.97;4.93;;;;;;;;;;5112728;28;20688;-78
2023/07/17 04:32:36;;;;;;;5.60;5.10;;;;;;;;;;5094337;28;20219;-78
2023/07/17 04:35:04;;;;;;;4.33;3.93;;;;;;;;;;5059775;28;20590;-78
2023/07/17 04:37:30;;;;;;;7.27;5.57;;;;;;;;;;5111928;28;20215;-78
2023/07/17 04:39:57;;;;;;;4.93;4.43;;;;;;;;;;5095780;28;20208;-78
2023/07/17 04:42:24;;;;;;;10.03;4.47;;;;;;;;;;5109652;28;20188;-78
2023/07/17 04:44:52;;;;;;;6.83;4.60;;;;;;;;;;5098105;28;20666;-78
2023/07/17 04:47:19;;;;;;;6.10;5.50;;;;;;;;;;5108374;28;20198;-78
2023/07/17 04:49:46;;;;;;;5.40;4.90;;;;;;;;;;5111691;28;20223;-78
2023/07/17 04:52:12;;;;;;;6.07;5.17;;;;;;;;;;5111212;28;20195;-78
2023/07/17 04:54:40;;;;;;;8.83;5.30;;;;;;;;;;5112468;28;20207;-78
2023/07/17 04:57:06;;;;;;;5.13;4.60;;;;;;;;;;5110764;28;20623;-78
2023/07/17 04:59:33;;;;;;;12.57;5.17;;;;;;;;;;5102596;28;20199;-78
2023/07/17 05:02:01;;;;;;;4.87;4.17;;;;;;;;;;5111244;28;20196;-78
2023/07/17 05:04:28;;;;;;;4.90;4.50;;;;;;;;;;5112237;28;20596;-78
2023/07/17 05:06:56;;;;;;;6.80;5.10;;;;;;;;;;5111416;28;20581;-78
2023/07/17 05:09:23;;;;;;;5.73;5.23;;;;;;;;;;5111747;28;20278;-78
2023/07/17 05:11:49;;;;;;;7.27;5.10;;;;;;;;;;5097075;28;20412;-78
2023/07/17 05:14:16;;;;;;;7.53;5.13;;;;;;;;;;5108350;28;20705;-78
2023/07/17 05:16:44;;;;;;;5.90;5.00;;;;;;;;;;5103831;28;20199;-78
2023/07/17 05:19:12;;;;;;;13.23;5.97;;;;;;;;;;5111707;28;20661;-78
2023/07/17 05:21:39;;;;;;;8.37;5.33;;;;;;;;;;5093699;28;20211;-78
2023/07/17 05:24:06;;;;;;;6.27;5.13;;;;;;;;;;5092178;28;20200;-78
2023/07/17 05:26:33;;;;;;;7.77;6.00;;;;;;;;;;5092771;28;20204;-78
2023/07/17 05:28:59;;;;;;;5.23;4.83;;;;;;;;;;5093988;28;20199;-78
2023/07/17 05:31:26;;;;;;;6.47;5.10;;;;;;;;;;5101948;28;20187;-78
2023/07/17 05:33:53;;;;;;;7.03;5.23;;;;;;;;;;5098106;28;20220;-78
2023/07/17 05:36:21;;;;;;;7.60;5.70;;;;;;;;;;5094777;28;20196;-78
2023/07/17 05:38:48;;;;;;;16.93;5.47;;;;;;;;;;5101231;28;20198;-78
2023/07/17 05:41:15;;;;;;;12.20;5.57;;;;;;;;;;5099957;28;20198;-78
2023/07/17 05:43:42;;;;;;;8.17;5.50;;;;;;;;;;5115299;28;20207;-78
2023/07/17 05:46:08;;;;;;;6.03;5.30;;;;;;;;;;5101678;28;20221;-78
2023/07/17 05:48:35;;;;;;;11.53;5.63;;;;;;;;;;5115083;28;20277;-78
2023/07/17 05:51:02;;;;;;;6.33;5.60;;;;;;;;;;5116078;28;20219;-78
2023/07/17 05:53:31;;;;;;;6.93;5.27;;;;;;;;;;5116342;28;20754;-78
2023/07/17 05:55:57;;;;;;;5.80;5.30;;;;;;;;;;5116073;28;20273;-78
2023/07/17 05:58:24;;;;;;;8.10;5.73;;;;;;;;;;5116227;28;20198;-78
2023/07/17 06:00:51;;;;;;;9.90;6.13;;;;;;;;;;5114140;28;20653;-78
2023/07/17 06:03:20;;;;;;;6.47;5.83;;;;;;;;;;5101942;28;20200;-78
2023/07/17 06:05:47;;;;;;;6.03;5.47;;;;;;;;;;5110144;28;20195;-78
2023/07/17 06:08:14;;;;;;;6.93;6.20;;;;;;;;;;5095261;28;20207;-78
2023/07/17 06:10:43;;;;;;;6.67;5.97;;;;;;;;;;5094852;28;20577;-78
2023/07/17 06:13:10;;;;;;;7.03;5.55;;;;;;;;;;5094254;28;20745;-78
2023/07/17 06:15:37;;;;;;;6.37;5.77;;;;;;;;;;5103365;28;20195;-79
2023/07/17 06:18:04;;;;;;;6.90;6.30;;;;;;;;;;5100295;28;20546;-78
2023/07/17 06:20:31;;;;;;;8.70;5.87;;;;;;;;;;5114461;28;20207;-78
2023/07/17 06:22:57;;;;;;;6.70;5.97;;;;;;;;;;5115457;28;20560;-78
2023/07/17 06:25:24;;;;;;;6.70;6.07;;;;;;;;;;5115298;28;20657;-78
2023/07/17 06:27:52;;;;;;;8.13;6.28;;;;;;;;;;5102996;28;20301;-79
2023/07/17 06:30:20;;;;;;;7.22;6.20;;;;;;;;;;5107479;28;20573;-78
2023/07/17 06:32:47;;;;;;;6.88;6.25;;;;;;;;;;5114891;28;20195;-78
2023/07/17 06:35:14;;;;;;;6.88;6.28;;;;;;;;;;5114762;28;20195;-78
2023/07/17 06:37:40;;;;;;;8.05;5.88;;;;;;;;;;5107335;28;20212;-78
2023/07/17 06:40:08;;;;;;;7.88;6.45;;;;;;;;;;5111099;28;20202;-78
2023/07/17 06:42:34;;;;;;;9.52;6.78;;;;;;;;;;5094087;28;20241;-78
2023/07/17 06:45:03;;;;;;;6.53;6.03;;;;;;;;;;5102811;28;20204;-78
2023/07/17 06:47:30;;;;;;;7.75;6.15;;;;;;;;;;5104239;28;20204;-78
2023/07/17 06:49:57;;;;;;;7.43;6.25;;;;;;;;;;5114404;28;20709;-78
2023/07/17 06:52:24;;;;;;;6.93;5.90;;;;;;;;;;5105580;28;20196;-78
2023/07/17 06:54:51;;;;;;;6.15;5.57;;;;;;;;;;5096076;28;20224;-78
2023/07/17 06:57:17;;;;;;;8.10;6.10;;;;;;;;;;5114243;28;20199;-78
2023/07/17 06:59:44;;;;;;;7.25;6.18;;;;;;;;;;5114919;28;20200;-78
2023/07/17 07:02:12;;;;;;;8.25;5.90;;;;;;;;;;5113161;28;20665;-79
2023/07/17 07:04:39;;;;;;;7.20;5.82;;;;;;;;;;5115062;28;20260;-78
2023/07/17 07:07:06;;;;;;;6.63;6.03;;;;;;;;;;5111105;28;20195;-79
2023/07/17 07:09:33;;;;;;;7.72;6.82;;;;;;;;;;5098509;28;20191;-78
2023/07/17 07:12:00;;;;;;;7.82;6.70;;;;;;;;;;5113615;28;20676;-78
2023/07/17 07:14:27;;;;;;;9.13;5.88;;;;;;;;;;5096118;28;20224;-78
2023/07/17 07:16:53;;;;;;;11.43;6.20;;;;;;;;;;5099486;28;20271;-78
2023/07/17 07:19:21;;;;;;;7.15;6.43;;;;;;;;;;5110955;28;20192;-78
2023/07/17 07:21:48;;;;;;;7.82;5.82;;;;;;;;;;5114064;28;20204;-78
2023/07/17 07:24:15;;;;;;;6.45;5.85;;;;;;;;;;5106695;28;20612;-78
2023/07/17 07:26:42;;;;;;;11.43;5.80;;;;;;;;;;5094042;28;20208;-78
2023/07/17 07:29:09;;;;;;;11.60;6.03;;;;;;;;;;5096231;28;20195;-78
2023/07/17 07:31:35;;;;;;;6.15;5.65;;;;;;;;;;5114039;28;20205;-78
2023/07/17 07:34:02;;;;;;;8.00;6.05;;;;;;;;;;5093529;28;20715;-78
2023/07/17 07:36:30;;;;;;;7.00;6.40;;;;;;;;;;5113847;28;20199;-79
2023/07/17 07:38:57;;;;;;;6.05;5.45;;;;;;;;;;5104010;28;20207;-79
2023/07/17 07:41:24;;;;;;;7.93;6.05;;;;;;;;;;5101464;28;20192;-79
2023/07/17 07:43:51;;;;;;;6.63;6.00;;;;;;;;;;5099881;28;20206;-78
2023/07/17 07:46:18;;;;;;;8.43;6.30;;;;;;;;;;5095688;28;20197;-78
2023/07/17 07:48:44;;;;;;;6.10;5.50;;;;;;;;;;5092143;28;20192;-78
2023/07/17 07:51:11;;;;;;;7.63;5.82;;;;;;;;;;5093232;28;20278;-78
2023/07/17 07:53:39;;;;;;;6.80;6.20;;;;;;;;;;5092068;28;20227;-79
2023/07/17 07:56:06;;;;;;;6.40;5.65;;;;;;;;;;5092944;28;20270;-78
2023/07/17 07:58:33;;;;;;;6.40;5.68;;;;;;;;;;5092842;28;20215;-78
2023/07/17 08:01:00;;;;;;;5.82;5.30;;;;;;;;;;5109293;28;20199;-79
2023/07/17 08:03:27;;;;;;;6.40;5.70;;;;;;;;;;5098008;28;20196;-78
2023/07/17 08:05:55;;;;;;;10.60;6.20;;;;;;;;;;5112325;28;20195;-79
2023/07/17 08:08:22;;;;;;;6.43;5.47;;;;;;;;;;5113343;28;20214;-79
2023/07/17 08:10:54;;;;;;;6.53;5.72;;;;;;;;;;5112393;28;20192;-79
2023/07/17 08:13:21;;;;;;;7.00;5.93;;;;;;;;;;5112140;28;20203;-79
2023/07/17 08:15:49;;;;;;;7.20;6.18;;;;;;;;;;5107589;28;20192;-79
2023/07/17 08:18:16;;;;;;;9.93;5.85;;;;;;;;;;5092021;28;20222;-78
2023/07/17 08:20:43;;;;;;;6.25;5.63;;;;;;;;;;5092571;28;20204;-79
2023/07/17 08:23:12;;;;;;;7.68;5.85;;;;;;;;;;5105971;28;20249;-78
2023/07/17 08:25:38;;;;;;;7.70;5.43;;;;;;;;;;5112059;28;20195;-79
2023/07/17 08:28:06;;;;;;;9.93;5.97;;;;;;;;;;5104266;28;20196;-79
2023/07/17 08:30:33;;;;;;;6.25;5.55;;;;;;;;;;5112893;28;20300;-79
2023/07/17 08:33:00;;;;;;;6.88;5.97;;;;;;;;;;5112670;28;20222;-79
2023/07/17 08:35:27;;;;;;;7.80;5.75;;;;;;;;;;5111591;28;20219;-78
2023/07/17 08:37:53;;;;;;;6.10;5.53;;;;;;;;;;5113541;28;20196;-78
2023/07/17 08:40:20;;;;;;;6.88;6.18;;;;;;;;;;5111123;28;20202;-79
2023/07/17 08:42:48;;;;;;;7.03;6.40;;;;;;;;;;5097530;28;20193;-79
2023/07/17 08:45:16;;;;;;;6.13;5.53;;;;;;;;;;5100440;28;20201;-79
2023/07/17 08:47:43;;;;;;;7.53;6.70;;;;;;;;;;5091319;28;20211;-79
2023/07/17 08:50:10;;;;;;;6.90;5.70;;;;;;;;;;5092848;28;20220;-79
2023/07/17 08:52:37;;;;;;;7.40;6.22;;;;;;;;;;5091902;28;20679;-79
2023/07/17 08:55:05;;;;;;;5.88;5.28;;;;;;;;;;5096412;28;20219;-79
2023/07/17 08:57:32;;;;;;;6.00;5.47;;;;;;;;;;5112015;28;20682;-81
2023/07/17 08:59:59;;;;;;;6.50;6.00;;;;;;;;;;5091926;28;20231;-79
2023/07/17 09:02:28;;;;;;;9.98;6.05;;;;;;;;;;5096686;28;20196;-78
2023/07/17 09:04:54;;;;;;;9.68;6.28;;;;;;;;;;5111819;28;20211;-78
2023/07/17 09:07:21;;;;;;;7.65;6.13;;;;;;;;;;5109317;28;20196;-79
2023/07/17 09:10:14;;;;;;;7.10;6.45;;;;;;;;;;5091938;28;20199;-78
2023/07/17 09:12:42;;;;;;;6.50;5.88;;;;;;;;;;5095813;28;20210;-79
2023/07/17 09:15:12;;;;;;;6.20;5.63;;;;;;;;;;5110875;28;20215;-79
2023/07/17 09:17:40;;;;;;;7.65;5.88;;;;;;;;;;5095399;28;20199;-79
2023/07/17 09:20:10;;;;;;;7.30;6.60;;;;;;;;;;5111626;28;20662;-79
2023/07/17 09:22:38;;;;;;;6.90;6.13;;;;;;;;;;5092141;28;20196;-79
2023/07/17 09:25:05;;;;;;;7.10;6.18;;;;;;;;;;5090998;28;20724;-79
2023/07/17 09:27:43;;;;;;;8.00;6.38;;;;;;;;;;5091283;28;20196;-79
2023/07/17 09:30:12;;;;;;;7.95;6.43;;;;;;;;;;5112540;28;20203;-79
2023/07/17 09:32:40;;;;;;;7.47;6.18;;;;;;;;;;5112383;28;20203;-79
2023/07/17 09:35:12;;;;;;;9.63;6.32;;;;;;;;;;5110522;28;20222;-79
2023/07/17 09:37:41;;;;;;;7.65;6.85;;;;;;;;;;5112779;28;20404;-79
2023/07/17 09:40:11;;;;;;;8.00;7.30;;;;;;;;;;5111749;28;20665;-79
2023/07/17 09:42:38;;;;;;;8.55;7.85;;;;;;;;;;5111792;28;20203;-79
2023/07/17 09:45:07;;;;;;;8.35;7.47;;;;;;;;;;5111968;28;20200;-78
2023/07/17 09:47:35;;;;;;;8.82;8.02;;;;;;;;;;5111812;28;20674;-79
2023/07/17 09:50:04;;;;;;;8.73;7.78;;;;;;;;;;5112115;28;20223;-79
2023/07/17 09:52:32;;;;;;;8.73;7.82;;;;;;;;;;5112286;28;20202;-79
2023/07/17 09:55:00;;;;;;;7.78;7.05;;;;;;;;;;5112215;28;20231;-79
2023/07/17 09:57:28;;;;;;;7.10;6.47;;;;;;;;;;5112327;28;20565;-79
2023/07/17 09:59:59;;;;;;;7.90;6.80;;;;;;;;;;5111760;28;20192;-78
2023/07/17 10:02:31;;;;;;;9.60;7.65;;;;;;;;;;5111655;28;20209;-79
2023/07/17 10:05:00;;;;;;;8.73;6.97;;;;;;;;;;5111749;28;20191;-79
2023/07/17 10:07:29;;;;;;;7.15;6.50;;;;;;;;;;5111677;28;20289;-79
2023/07/17 10:09:58;;;;;;;7.22;6.53;;;;;;;;;;5111879;28;20199;-79
2023/07/17 10:12:25;;;;;;;8.75;6.78;;;;;;;;;;5112077;28;20195;-78
2023/07/17 10:14:52;;;;;;;11.48;6.90;;;;;;;;;;5115538;28;20222;-79
2023/07/17 10:17:29;;;;;;;7.53;6.75;;;;;;;;;;5115810;28;20199;-79
2023/07/17 10:19:58;;;;;;;9.68;6.72;;;;;;;;;;5116315;28;20214;-78
2023/07/17 10:22:33;;;;;;;9.40;7.35;;;;;;;;;;5115447;28;20273;-78
2023/07/17 10:25:01;;;;;;;9.48;7.18;;;;;;;;;;5115634;28;20222;-79
2023/07/17 10:27:38;;;;;;;8.02;7.35;;;;;;;;;;5114874;28;20199;-79
2023/07/17 10:30:24;;;;;;;7.75;6.63;;;;;;;;;;5115493;28;20191;-79
2023/07/17 10:33:13;;;;;;;7.65;6.93;;;;;;;;;;5115037;28;20252;-79
2023/07/17 10:35:49;;;;;;;6.32;5.72;;;;;;;;;;5108545;28;20220;-78
2023/07/17 10:38:19;;;;;;;10.15;6.55;;;;;;;;;;5093960;28;20192;-79
2023/07/17 10:40:46;;;;;;;8.13;6.43;;;;;;;;;;5113430;28;20207;-78
2023/07/17 10:43:15;;;;;;;9.00;6.70;;;;;;;;;;5114878;28;20219;-79
2023/07/17 10:45:42;;;;;;;8.55;5.82;;;;;;;;;;5104654;28;20206;-79
2023/07/17 10:48:09;;;;;;;6.90;6.40;;;;;;;;;;5105691;28;20194;-78
2023/07/17 10:50:36;;;;;;;10.48;6.10;;;;;;;;;;5107717;28;20281;-79
2023/07/17 10:53:03;;;;;;;7.85;5.53;;;;;;;;;;5111473;28;20203;-79
2023/07/17 10:55:32;;;;;;;6.65;6.05;;;;;;;;;;5107386;28;20250;-79
2023/07/17 10:58:00;;;;;;;6.85;6.32;;;;;;;;;;5114044;28;20200;-79
2023/07/17 11:00:27;;;;;;;7.18;6.47;;;;;;;;;;5114185;28;20195;-79
2023/07/17 11:02:56;;;;;;;6.95;6.38;;;;;;;;;;5106046;28;20199;-79
2023/07/17 11:05:23;;;;;;;7.63;6.82;;;;;;;;;;5103503;28;20670;-78
2023/07/17 11:07:49;;;;;;;7.05;6.35;;;;;;;;;;5114246;28;20199;-79
2023/07/17 11:10:16;;;;;;;7.70;6.90;;;;;;;;;;5106277;28;20211;-79
2023/07/17 11:12:45;;;;;;;6.55;5.85;;;;;;;;;;5113564;28;20252;-79
2023/07/17 11:15:16;;;;;;;6.82;6.20;;;;;;;;;;5114038;28;20207;-79
2023/07/17 11:17:43;;;;;;;10.60;6.30;;;;;;;;;;5094566;28;20211;-79
2023/07/17 11:20:12;;;;;;;9.18;7.03;;;;;;;;;;5106239;28;20626;-79
2023/07/17 11:22:40;;;;;;;10.13;6.70;;;;;;;;;;5113249;28;20221;-79
2023/07/17 11:25:09;;;;;;;10.10;6.28;;;;;;;;;;5109792;28;20235;-79
2023/07/17 11:27:36;;;;;;;8.20;6.68;;;;;;;;;;5099487;28;20191;-79
2023/07/17 11:30:15;;;;;;;8.75;6.72;;;;;;;;;;5113463;28;20287;-79
2023/07/17 11:32:42;;;;;;;7.05;6.35;;;;;;;;;;5108059;28;20617;-79
2023/07/17 11:35:09;;;;;;;8.07;6.55;;;;;;;;;;5110613;28;20219;-79
2023/07/17 11:37:39;;;;;;;7.65;6.95;;;;;;;;;;5112797;28;20195;-79
2023/07/17 11:40:09;;;;;;;9.88;6.82;;;;;;;;;;5097384;28;20226;-79
2023/07/17 11:42:55;;;;;;;6.97;6.32;;;;;;;;;;5103812;28;20236;-79
2023/07/17 11:45:26;;;;;;;8.00;7.10;;;;;;;;;;5104901;28;20635;-79
2023/07/17 11:47:53;;;;;;;9.20;7.45;;;;;;;;;;5092534;28;20189;-79
2023/07/17 11:50:21;;;;;;;9.40;7.10;;;;;;;;;;5092689;28;20274;-79
2023/07/17 11:52:48;;;;;;;9.48;7.07;;;;;;;;;;5110010;28;20191;-79
2023/07/17 11:55:20;;;;;;;6.93;6.22;;;;;;;;;;5096681;28;20227;-79
2023/07/17 11:57:50;;;;;;;9.23;6.93;;;;;;;;;;5095477;28;20200;-79
2023/07/17 12:00:18;;;;;;;8.93;6.68;;;;;;;;;;5111795;28;20256;-79
2023/07/17 12:02:47;;;;;;;7.63;6.78;;;;;;;;;;5112406;28;20199;-79
2023/07/17 12:05:14;;;;;;;9.73;7.25;;;;;;;;;;5112438;28;20688;-79
2023/07/17 12:07:40;;;;;;;8.77;6.68;;;;;;;;;;5108106;28;20253;-79
2023/07/17 12:10:09;;;;;;;8.23;7.53;;;;;;;;;;5092164;28;20207;-79
2023/07/17 12:12:35;;;;;;;7.93;7.32;;;;;;;;;;5094184;28;20279;-79
2023/07/17 12:15:02;;;;;;;7.53;6.82;;;;;;;;;;5107186;28;20223;-79
2023/07/17 12:17:29;;;;;;;10.15;7.03;;;;;;;;;;5100982;28;20187;-79
2023/07/17 12:19:57;;;;;;;8.10;7.30;;;;;;;;;;5101807;28;20200;-79
2023/07/17 12:22:25;;;;;;;6.97;6.28;;;;;;;;;;5100784;28;20651;-79
2023/07/17 12:24:52;;;;;;;8.05;7.28;;;;;;;;;;5101491;28;20199;-79
2023/07/17 12:27:18;;;;;;;10.07;7.45;;;;;;;;;;5113181;28;20268;-79
2023/07/17 12:29:45;;;;;;;8.57;6.32;;;;;;;;;;5112348;28;20199;-79
2023/07/17 12:32:12;;;;;;;11.13;6.75;;;;;;;;;;5103083;28;20670;-79
2023/07/17 12:34:39;;;;;;;7.60;6.75;;;;;;;;;;5106731;28;20196;-79
2023/07/17 12:37:07;;;;;;;8.02;7.10;;;;;;;;;;5108952;28;20195;-79
2023/07/17 12:39:34;;;;;;;7.28;6.57;;;;;;;;;;5103270;28;20226;-79
2023/07/17 12:42:01;;;;;;;8.75;6.40;;;;;;;;;;5105087;28;20196;-78
2023/07/17 12:44:29;;;;;;;7.15;6.55;;;;;;;;;;5100092;28;20196;-79
2023/07/17 12:46:55;;;;;;;14.65;7.15;;;;;;;;;;5107576;28;20192;-79
2023/07/17 12:49:22;;;;;;;7.43;6.78;;;;;;;;;;5107757;28;20202;-79
2023/07/17 12:51:49;;;;;;;6.90;6.22;;;;;;;;;;5111742;28;20249;-79
2023/07/17 12:54:17;;;;;;;8.27;7.40;;;;;;;;;;5112512;28;20207;-79
2023/07/17 12:56:44;;;;;;;7.13;6.22;;;;;;;;;;5102636;28;20723;-79
2023/07/17 12:59:11;;;;;;;6.78;6.18;;;;;;;;;;5100174;28;20188;-79
2023/07/17 13:01:37;;;;;;;7.80;6.95;;;;;;;;;;5097178;28;20199;-79
2023/07/17 13:04:05;;;;;;;6.82;6.22;;;;;;;;;;5095288;28;20192;-79
2023/07/17 13:06:31;;;;;;;7.70;6.78;;;;;;;;;;5107951;28;20208;-79
2023/07/17 13:08:58;;;;;;;8.07;6.47;;;;;;;;;;5106332;28;20669;-79
2023/07/17 13:11:26;;;;;;;12.55;11.23;;;;;;;;;;5102155;28;20203;-79
2023/07/17 13:13:53;;;;;;;7.88;7.20;;;;;;;;;;5112232;28;20195;-79
2023/07/17 13:16:20;;;;;;;7.93;6.80;;;;;;;;;;5103731;28;20211;-79
2023/07/17 13:18:47;;;;;;;7.35;6.72;;;;;;;;;;5094363;28;20237;-79
2023/07/17 13:21:13;;;;;;;8.50;7.47;;;;;;;;;;5112021;28;20203;-79
2023/07/17 13:23:40;;;;;;;7.65;6.68;;;;;;;;;;5111136;28;20199;-78
2023/07/17 13:26:07;;;;;;;7.55;6.95;;;;;;;;;;5107782;28;20222;-79
2023/07/17 13:28:35;;;;;;;7.53;6.93;;;;;;;;;;5106783;28;20251;-79
2023/07/17 13:31:02;;;;;;;6.60;6.07;;;;;;;;;;5100740;28;20245;-79
2023/07/17 13:33:29;;;;;;;7.22;6.63;;;;;;;;;;5096846;28;20198;-78
2023/07/17 13:35:56;;;;;;;8.43;6.35;;;;;;;;;;5111663;28;20685;-78
2023/07/17 13:38:23;;;;;;;7.75;6.97;;;;;;;;;;5109495;28;20622;-78
2023/07/17 13:40:50;;;;;;;6.80;6.20;;;;;;;;;;5111211;28;20661;-79
2023/07/17 13:43:17;;;;;;;7.72;6.28;;;;;;;;;;5092512;28;20207;-79
2023/07/17 13:45:45;;;;;;;7.50;6.80;;;;;;;;;;5091307;28;20214;-79
2023/07/17 13:48:12;;;;;;;8.55;6.70;;;;;;;;;;5093232;28;20203;-79
2023/07/17 13:50:39;;;;;;;7.82;7.03;;;;;;;;;;5102842;28;20231;-79
2023/07/17 13:53:06;;;;;;;8.65;6.85;;;;;;;;;;5100576;28;20206;-79
2023/07/17 13:55:32;;;;;;;7.18;6.65;;;;;;;;;;5115267;28;20242;-79
2023/07/17 13:57:59;;;;;;;7.75;7.13;;;;;;;;;;5115183;28;20195;-78
2023/07/17 14:00:27;;;;;;;10.57;7.38;;;;;;;;;;5101336;28;20554;-79
2023/07/17 14:02:56;;;;;;;8.98;6.68;;;;;;;;;;5095188;28;20196;-79
2023/07/17 14:05:22;;;;;;;8.77;7.15;;;;;;;;;;5094243;28;20232;-79
2023/07/17 14:07:49;;;;;;;8.05;7.35;;;;;;;;;;5109737;28;20256;-79
2023/07/17 14:10:16;;;;;;;6.53;6.00;;;;;;;;;;5105455;28;20261;-79
2023/07/17 14:12:43;;;;;;;7.78;6.97;;;;;;;;;;5115402;28;20199;-78
2023/07/17 14:15:10;;;;;;;8.45;7.65;;;;;;;;;;5114700;28;20207;-78
2023/07/17 14:17:37;;;;;;;8.23;7.50;;;;;;;;;;5115394;28;20202;-79
2023/07/17 14:20:06;;;;;;;7.78;7.10;;;;;;;;;;5100692;28;20196;-79
2023/07/17 14:22:33;;;;;;;8.00;7.25;;;;;;;;;;5103873;28;20188;-79
2023/07/17 14:25:00;;;;;;;7.10;6.47;;;;;;;;;;5106680;28;20276;-79
2023/07/17 14:27:27;;;;;;;7.80;7.07;;;;;;;;;;5098426;28;20203;-79
2023/07/17 14:29:53;;;;;;;7.82;7.03;;;;;;;;;;5102662;28;20202;-78
2023/07/17 14:32:20;;;;;;;7.95;7.32;;;;;;;;;;5099378;28;20195;-79
2023/07/17 14:34:48;;;;;;;11.73;7.43;;;;;;;;;;5098477;28;20200;-79
2023/07/17 14:37:16;;;;;;;8.70;7.13;;;;;;;;;;5096819;28;20315;-79
2023/07/17 14:39:43;;;;;;;7.57;6.82;;;;;;;;;;5114660;28;20203;-79
2023/07/17 14:42:10;;;;;;;8.10;7.50;;;;;;;;;;5113961;28;20206;-79
2023/07/17 14:44:37;;;;;;;7.55;6.80;;;;;;;;;;5104808;28;20650;-78
2023/07/17 14:47:04;;;;;;;8.13;7.32;;;;;;;;;;5114520;28;20195;-78
2023/07/17 14:49:32;;;;;;;7.90;7.30;;;;;;;;;;5112444;28;20670;-79